KLSF/LSF METAR and TAF weather

Enter ICAO airport designator
Station Type Date Time Source
KLSF METAR 2018/12/19 09:56 UTC NOAA

KLSF 190956Z AUTO 00000KT 10SM SCT180 05/05 A3006 RMK AO2 SLP185 T00510051 $


Station Type Date Time Source
KLSF Decoded METAR 2018/12/19 09:56 UTC NOAA

Fort Benning, GA, United States (KLSF) 32-20N 084-50W 130M
Dec 19, 2018 - 04:56 AM EST / 2018.12.19 0956 UTC
Wind: Calm:0
Visibility: 10 mile(s):0
Sky conditions: partly cloudy
Temperature: 41.2 F (5.1 C)
Dew Point: 41.2 F (5.1 C)
Relative Humidity: 100%
Pressure (altimeter): 30.06 in. Hg (1017 hPa)
ob: KLSF 190956Z AUTO 00000KT 10SM SCT180 05/05 A3006 RMK AO2 SLP185 T00510051
cycle: 10

Station Type Date Time Source
KLSF TAF 2018/12/19 09:09 UTC NOAA

TAF TAF KLSF 190900Z 1909/2015 10005KT 9999 FEW250 QNH3000INS
BECMG 1920/1921 11006KT 9999 BKN100 QNH2993INS
BECMG 2003/2004 09006KT 9000 -SHRA OVC050 QNH2991INS
BECMG 2007/2008 08009KT 6000 -SHRA OVC015 QNH2975INS
BECMG 2011/2012 08010KT 6000 -SHRA OVC007 QNH2965INS TX16/1920Z TN05/1909Z


Example: see airport list